createdAt,value
2023-02-24T00:00:38.813Z,0.00
2023-02-24T00:05:38.696Z,0.00
2023-02-24T00:10:38.619Z,0.00
2023-02-24T00:15:38.588Z,0.00
2023-02-24T00:20:38.496Z,0.00
2023-02-24T00:25:38.441Z,0.00
2023-02-24T00:30:38.361Z,0.00
2023-02-24T00:35:38.308Z,0.00
2023-02-24T00:40:38.234Z,0.00
2023-02-24T00:45:38.179Z,0.00
2023-02-24T00:50:38.109Z,0.00
2023-02-24T00:55:38.054Z,0.00
2023-02-24T01:00:37.982Z,0.00
2023-02-24T01:05:37.932Z,0.00
2023-02-24T01:10:37.846Z,0.00
2023-02-24T01:15:37.800Z,0.00
2023-02-24T01:20:37.714Z,0.00
2023-02-24T01:25:37.667Z,0.00
2023-02-24T01:30:37.585Z,0.00
2023-02-24T01:35:37.538Z,0.00
2023-02-24T01:40:37.458Z,0.00
2023-02-24T01:45:37.410Z,0.00
2023-02-24T01:50:37.339Z,0.00
2023-02-24T01:55:37.281Z,0.00
2023-02-24T02:00:37.220Z,0.00
2023-02-24T02:05:37.144Z,0.00
2023-02-24T02:10:37.082Z,0.00
2023-02-24T02:15:37.077Z,0.00
2023-02-24T02:20:36.968Z,0.00
2023-02-24T02:25:36.881Z,0.00
2023-02-24T02:30:36.839Z,0.00
2023-02-24T02:35:36.770Z,0.00
2023-02-24T02:40:36.677Z,0.00
2023-02-24T02:45:36.652Z,0.00
2023-02-24T02:50:36.552Z,0.00
2023-02-24T02:55:36.488Z,0.00
2023-02-24T03:00:36.410Z,0.00
2023-02-24T03:05:36.354Z,0.00
2023-02-24T03:10:36.290Z,0.00
2023-02-24T03:15:36.221Z,0.00
2023-02-24T03:20:36.160Z,0.00
2023-02-24T03:25:36.092Z,0.00
2023-02-24T03:30:36.089Z,0.00
2023-02-24T03:35:35.961Z,0.00
2023-02-24T03:40:35.938Z,0.00
2023-02-24T03:45:35.838Z,0.00
2023-02-24T03:50:35.757Z,0.00
2023-02-24T03:55:35.699Z,0.00
2023-02-24T04:00:35.634Z,0.00
2023-02-24T04:05:35.571Z,0.00
2023-02-24T04:10:35.492Z,0.00
2023-02-24T04:15:35.449Z,0.00
2023-02-24T04:20:35.362Z,0.00
2023-02-24T04:25:35.296Z,0.00
2023-02-24T04:30:35.409Z,0.00
2023-02-24T04:35:35.167Z,0.00
2023-02-24T04:40:35.108Z,0.00
2023-02-24T04:46:12.575Z,0.00
2023-02-24T04:50:34.990Z,0.00
2023-02-24T04:55:34.915Z,0.00
2023-02-24T05:00:34.853Z,0.00
2023-02-24T05:05:34.773Z,0.00
2023-02-24T05:10:34.716Z,0.00
2023-02-24T05:15:34.645Z,0.00
2023-02-24T05:20:34.584Z,0.00
2023-02-24T05:25:34.510Z,0.00
2023-02-24T05:30:34.508Z,0.00
2023-02-24T05:35:34.378Z,0.00
2023-02-24T05:40:34.316Z,0.00
2023-02-24T05:45:34.249Z,4.00
2023-02-24T05:50:34.183Z,8.00
2023-02-24T05:55:34.120Z,8.00
2023-02-24T06:00:34.054Z,24.00
2023-02-24T06:05:33.994Z,44.00
2023-02-24T06:10:33.925Z,44.00
2023-02-24T06:15:33.853Z,40.00
2023-02-24T06:20:33.788Z,60.00
2023-02-24T06:25:33.712Z,68.00
2023-02-24T06:30:33.744Z,132.00
2023-02-24T06:35:33.583Z,188.00
2023-02-24T06:40:33.526Z,164.00
2023-02-24T06:45:33.456Z,168.00
2023-02-24T06:50:33.394Z,380.00
2023-02-24T06:55:33.327Z,608.00
2023-02-24T07:00:33.269Z,624.00
2023-02-24T07:05:33.185Z,548.00
2023-02-24T07:10:33.145Z,744.00
2023-02-24T07:15:33.053Z,1044.00
2023-02-24T07:20:32.990Z,1040.00
2023-02-24T07:25:32.915Z,1412.00
2023-02-24T07:30:33.013Z,2104.00
2023-02-24T07:35:32.784Z,2768.00
2023-02-24T07:40:32.730Z,2952.00
2023-02-24T07:45:32.727Z,4704.00
2023-02-24T07:50:32.605Z,3872.00
2023-02-24T07:55:32.515Z,2712.00
2023-02-24T08:00:32.462Z,2016.00
2023-02-24T08:05:32.414Z,3396.00
2023-02-24T08:10:32.328Z,3764.00
2023-02-24T08:15:32.269Z,4064.00
2023-02-24T08:20:32.184Z,4548.00
2023-02-24T08:25:32.110Z,4348.00
2023-02-24T08:30:32.159Z,4176.00
2023-02-24T08:35:31.987Z,4284.00
2023-02-24T08:40:31.940Z,3620.00
2023-02-24T08:45:31.850Z,4068.00
2023-02-24T08:50:31.793Z,4076.00
2023-02-24T08:55:31.736Z,5484.00
2023-02-24T09:00:31.712Z,11036.00
2023-02-24T09:05:31.595Z,11424.00
2023-02-24T09:10:31.557Z,13196.00
2023-02-24T09:15:31.463Z,18560.00
2023-02-24T09:20:31.424Z,18848.00
2023-02-24T09:25:31.331Z,16768.00
2023-02-24T09:30:31.347Z,25344.00
2023-02-24T09:35:31.202Z,43072.00
2023-02-24T09:40:31.157Z,37216.00
2023-02-24T09:45:31.175Z,16120.00
2023-02-24T09:50:55.428Z,34656.00
2023-02-24T09:55:32.021Z,26304.00
2023-02-24T10:00:30.891Z,7588.00
2023-02-24T10:05:30.806Z,9316.00
2023-02-24T10:10:30.784Z,12888.00
2023-02-24T10:15:30.675Z,19456.00
2023-02-24T10:20:30.648Z,34304.00
2023-02-24T10:25:30.546Z,43360.00
2023-02-24T10:30:30.606Z,28864.00
2023-02-24T10:35:30.412Z,20192.00
2023-02-24T10:40:30.353Z,19584.00
2023-02-24T10:45:34.835Z,11516.00
2023-02-24T10:50:32.304Z,7664.00
2023-02-24T10:55:30.154Z,5528.00
2023-02-24T11:00:30.102Z,4740.00
2023-02-24T11:05:30.013Z,8652.00
2023-02-24T11:10:29.998Z,6500.00
2023-02-24T11:15:29.899Z,7524.00
2023-02-24T11:20:46.456Z,5432.00
2023-02-24T11:25:30.788Z,3948.00
2023-02-24T11:30:29.803Z,5296.00
2023-02-24T11:35:29.617Z,7956.00
2023-02-24T11:40:29.566Z,6976.00
2023-02-24T11:45:29.493Z,7004.00
2023-02-24T11:50:29.436Z,6136.00
2023-02-24T11:55:29.358Z,5996.00
2023-02-24T12:00:29.318Z,5160.00
2023-02-24T12:05:29.288Z,5220.00
2023-02-24T12:10:29.172Z,5452.00
2023-02-24T12:15:29.095Z,5208.00
2023-02-24T12:20:29.040Z,6052.00
2023-02-24T12:25:28.964Z,7412.00
2023-02-24T12:30:28.951Z,8200.00
2023-02-24T12:35:28.830Z,8192.00
2023-02-24T12:40:28.777Z,8024.00
2023-02-24T12:45:28.711Z,6776.00
2023-02-24T12:50:28.634Z,5244.00
2023-02-24T12:55:28.564Z,5800.00
2023-02-24T13:00:28.502Z,5604.00
2023-02-24T13:05:28.436Z,5644.00
2023-02-24T13:10:28.374Z,4808.00
2023-02-24T13:15:28.309Z,3168.00
2023-02-24T13:20:28.238Z,2524.00
2023-02-24T13:25:28.173Z,2532.00
2023-02-24T13:30:28.140Z,2352.00
2023-02-24T13:35:28.140Z,2440.00
2023-02-24T13:40:27.998Z,2140.00
2023-02-24T13:45:27.905Z,1776.00
2023-02-24T13:50:27.849Z,2188.00
2023-02-24T13:55:27.778Z,2044.00
2023-02-24T14:00:27.720Z,1812.00
2023-02-24T14:05:27.648Z,1732.00
2023-02-24T14:10:27.618Z,1856.00
2023-02-24T14:15:27.556Z,1832.00
2023-02-24T14:20:27.459Z,1712.00
2023-02-24T14:25:27.406Z,1696.00
2023-02-24T14:30:27.349Z,1576.00
2023-02-24T14:35:27.471Z,1612.00
2023-02-24T14:40:27.208Z,1472.00
2023-02-24T14:45:27.143Z,1320.00
2023-02-24T14:50:27.092Z,1236.00
2023-02-24T14:55:27.006Z,1152.00
2023-02-24T15:00:26.957Z,928.00
2023-02-24T15:05:26.877Z,1224.00
2023-02-24T15:10:26.806Z,944.00
2023-02-24T15:15:26.734Z,964.00
2023-02-24T15:20:26.682Z,812.00
2023-02-24T15:25:37.127Z,800.00
2023-02-24T15:30:27.583Z,540.00
2023-02-24T15:35:26.466Z,552.00
2023-02-24T15:40:26.423Z,516.00
2023-02-24T15:45:26.367Z,504.00
2023-02-24T15:50:26.276Z,464.00
2023-02-24T15:55:26.215Z,396.00
2023-02-24T16:00:26.165Z,364.00
2023-02-24T16:05:26.086Z,268.00
2023-02-24T16:10:26.020Z,212.00
2023-02-24T16:15:25.960Z,152.00
2023-02-24T16:20:25.876Z,128.00
2023-02-24T16:25:25.801Z,100.00
2023-02-24T16:30:25.851Z,68.00
2023-02-24T16:35:25.675Z,48.00
2023-02-24T16:40:25.613Z,32.00
2023-02-24T16:45:25.542Z,20.00
2023-02-24T16:50:25.485Z,12.00
2023-02-24T16:55:25.412Z,4.00
2023-02-24T17:00:25.356Z,0.00
2023-02-24T17:05:25.333Z,0.00
2023-02-24T17:10:25.245Z,0.00
2023-02-24T17:15:25.167Z,0.00
2023-02-24T17:20:25.098Z,0.00
2023-02-24T17:25:25.140Z,0.00
2023-02-24T17:30:24.969Z,0.00
2023-02-24T17:35:24.903Z,0.00
2023-02-24T17:40:24.843Z,0.00
2023-02-24T17:45:24.759Z,0.00
2023-02-24T17:50:24.714Z,0.00
2023-02-24T17:55:24.629Z,0.00
2023-02-24T18:00:24.583Z,0.00
2023-02-24T18:05:24.495Z,0.00
2023-02-24T18:10:24.444Z,0.00
2023-02-24T18:15:24.362Z,0.00
2023-02-24T18:20:24.321Z,0.00
2023-02-24T18:25:24.236Z,0.00
2023-02-24T18:30:24.179Z,0.00
2023-02-24T18:35:24.112Z,0.00
2023-02-24T18:40:24.064Z,0.00
2023-02-24T18:45:23.987Z,0.00
2023-02-24T18:50:23.928Z,0.00
2023-02-24T18:55:23.859Z,0.00
2023-02-24T19:00:23.863Z,0.00
2023-02-24T19:05:24.949Z,0.00
2023-02-24T19:10:23.681Z,0.00
2023-02-24T19:15:23.805Z,0.00
2023-02-24T19:20:23.856Z,0.00
2023-02-24T19:25:23.470Z,0.00
2023-02-24T19:30:23.427Z,0.00
2023-02-24T19:35:23.338Z,0.00
2023-02-24T19:40:23.283Z,0.00
2023-02-24T19:45:23.208Z,0.00
2023-02-24T19:50:23.153Z,0.00
2023-02-24T19:55:23.138Z,0.00
2023-02-24T20:00:23.037Z,0.00
2023-02-24T20:05:22.957Z,0.00
2023-02-24T20:10:22.904Z,0.00
2023-02-24T20:15:22.872Z,0.00
2023-02-24T20:20:22.950Z,0.00
2023-02-24T20:25:22.723Z,0.00
2023-02-24T20:30:22.642Z,0.00
2023-02-24T20:35:22.704Z,0.00
2023-02-24T20:40:22.514Z,0.00
2023-02-24T20:45:22.445Z,0.00
2023-02-24T20:50:22.388Z,0.00
2023-02-24T20:55:22.320Z,0.00
2023-02-24T21:00:22.277Z,0.00
2023-02-24T21:05:22.185Z,0.00
2023-02-24T21:10:22.141Z,0.00
2023-02-24T21:15:22.063Z,0.00
2023-02-24T21:20:22.038Z,0.00
2023-02-24T21:25:21.998Z,0.00
2023-02-24T21:30:21.876Z,0.00
2023-02-24T21:35:21.798Z,0.00
2023-02-24T21:40:21.736Z,0.00
2023-02-24T21:45:21.668Z,0.00
2023-02-24T21:50:21.610Z,0.00
2023-02-24T21:55:21.537Z,0.00
2023-02-24T22:00:21.485Z,0.00
2023-02-24T22:05:21.407Z,0.00
2023-02-24T22:10:21.350Z,0.00
2023-02-24T22:15:21.280Z,0.00
2023-02-24T22:20:21.230Z,0.00
2023-02-24T22:25:21.149Z,0.00
2023-02-24T22:30:21.105Z,0.00
2023-02-24T22:35:21.028Z,0.00
2023-02-24T22:40:20.983Z,0.00
2023-02-24T22:45:20.897Z,0.00
2023-02-24T22:50:20.845Z,0.00
2023-02-24T22:55:20.765Z,0.00
2023-02-24T23:00:20.720Z,0.00
2023-02-24T23:05:20.644Z,0.00
2023-02-24T23:10:20.598Z,0.00
2023-02-24T23:15:20.520Z,0.00
2023-02-24T23:20:20.460Z,0.00
2023-02-24T23:25:20.385Z,0.00
2023-02-24T23:30:20.418Z,0.00
2023-02-24T23:35:20.355Z,0.00
2023-02-24T23:40:20.344Z,0.00
2023-02-24T23:45:20.371Z,0.00
2023-02-24T23:50:20.373Z,0.00
2023-02-24T23:55:20.443Z,0.00
